Time;durP1;ratioP1;P1;durP2;ratioP2;P2;SDS_P1;SDS_P2;PMS_P1;PMS_P2;Temp;Humidity;BMP_temperature;BMP_pressure;BME280_temperature;BME280_humidity;BME280_pressure;Samples;Min_cycle;Max_cycle;Signal;HPM_P1;HPM_P2
2023/09/18 00:01:14;;;;;;;10.93;5.40;;;;;;;;;;5030280;28;20477;-81
2023/09/18 00:03:42;;;;;;;10.00;5.60;;;;;;;;;;5032322;28;20927;-76
2023/09/18 00:06:12;;;;;;;9.05;5.10;;;;;;;;;;5027217;28;20926;-77
2023/09/18 00:08:39;;;;;;;8.15;5.15;;;;;;;;;;5026547;28;20438;-77
2023/09/18 00:11:07;;;;;;;8.43;5.15;;;;;;;;;;5040173;28;20766;-77
2023/09/18 00:13:34;;;;;;;9.33;5.40;;;;;;;;;;5046795;28;20508;-77
2023/09/18 00:16:03;;;;;;;8.02;4.85;;;;;;;;;;5031646;28;20450;-77
2023/09/18 00:18:31;;;;;;;11.87;5.00;;;;;;;;;;5029764;28;20427;-76
2023/09/18 00:20:58;;;;;;;7.25;4.88;;;;;;;;;;5028871;28;20439;-77
2023/09/18 00:23:25;;;;;;;7.27;4.90;;;;;;;;;;5042476;28;20844;-77
2023/09/18 00:25:52;;;;;;;9.07;5.07;;;;;;;;;;5023392;28;20470;-76
2023/09/18 00:28:20;;;;;;;9.07;5.10;;;;;;;;;;5025373;28;20501;-76
2023/09/18 00:30:49;;;;;;;8.37;5.00;;;;;;;;;;5021560;28;20487;-77
2023/09/18 00:33:19;;;;;;;8.07;4.82;;;;;;;;;;5029565;28;20485;-77
2023/09/18 00:35:50;;;;;;;6.72;4.78;;;;;;;;;;5030406;28;20967;-77
2023/09/18 00:38:17;;;;;;;9.02;4.72;;;;;;;;;;5030775;28;20915;-77
2023/09/18 00:40:48;;;;;;;7.43;4.72;;;;;;;;;;5028244;28;20435;-77
2023/09/18 00:43:18;;;;;;;5.53;4.65;;;;;;;;;;5045410;28;20774;-77
2023/09/18 00:45:46;;;;;;;8.53;4.23;;;;;;;;;;5035423;28;20439;-82
2023/09/18 00:48:15;;;;;;;6.82;4.43;;;;;;;;;;5030913;28;20561;-82
2023/09/18 00:50:44;;;;;;;8.82;5.13;;;;;;;;;;5027860;28;20777;-82
2023/09/18 00:53:12;;;;;;;8.63;4.97;;;;;;;;;;5023273;28;20450;-82
2023/09/18 00:55:42;;;;;;;6.53;4.80;;;;;;;;;;5029724;28;20427;-82
2023/09/18 00:58:10;;;;;;;5.00;4.47;;;;;;;;;;5045774;28;20971;-82
2023/09/18 01:00:38;;;;;;;6.20;4.55;;;;;;;;;;5025558;28;20445;-83
2023/09/18 01:03:08;;;;;;;7.78;4.68;;;;;;;;;;5029717;28;20843;-81
2023/09/18 01:05:39;;;;;;;8.00;4.32;;;;;;;;;;5029540;28;20930;-81
2023/09/18 01:08:06;;;;;;;6.35;4.85;;;;;;;;;;5023468;28;20443;-82
2023/09/18 01:10:34;;;;;;;8.70;4.90;;;;;;;;;;5045606;28;20431;-82
2023/09/18 01:13:13;;;;;;;5.38;4.47;;;;;;;;;;5024256;28;20521;-81
2023/09/18 01:15:47;;;;;;;9.13;4.72;;;;;;;;;;5029473;28;20485;-82
2023/09/18 01:18:14;;;;;;;7.57;4.30;;;;;;;;;;5040412;28;20797;-82
2023/09/18 01:20:41;;;;;;;6.43;4.73;;;;;;;;;;5027731;28;20435;-83
2023/09/18 01:23:08;;;;;;;4.85;4.40;;;;;;;;;;5045611;28;20435;-82
2023/09/18 01:25:38;;;;;;;7.80;4.63;;;;;;;;;;5030551;28;20501;-82
2023/09/18 01:28:06;;;;;;;6.07;4.47;;;;;;;;;;5030412;28;20538;-81
2023/09/18 01:30:35;;;;;;;7.65;5.10;;;;;;;;;;5029740;28;20430;-81
2023/09/18 01:33:03;;;;;;;7.43;4.70;;;;;;;;;;5043600;28;20446;-81
2023/09/18 01:35:32;;;;;;;6.05;4.82;;;;;;;;;;5028904;28;20446;-82
2023/09/18 01:38:00;;;;;;;6.88;4.45;;;;;;;;;;5022213;28;20431;-81
2023/09/18 01:40:27;;;;;;;7.68;4.63;;;;;;;;;;5021382;28;20490;-82
2023/09/18 01:42:57;;;;;;;8.17;4.40;;;;;;;;;;5044041;28;20435;-81
2023/09/18 01:45:25;;;;;;;7.75;4.63;;;;;;;;;;5019504;28;20440;-81
2023/09/18 01:47:52;;;;;;;6.60;4.68;;;;;;;;;;5020442;28;20529;-81
2023/09/18 01:50:19;;;;;;;7.65;4.43;;;;;;;;;;5043793;28;20442;-81
2023/09/18 01:52:46;;;;;;;8.85;4.63;;;;;;;;;;5029846;28;20467;-81
2023/09/18 01:55:13;;;;;;;5.07;4.50;;;;;;;;;;5045119;28;20497;-81
2023/09/18 01:57:42;;;;;;;7.43;4.57;;;;;;;;;;5029137;28;20423;-82
2023/09/18 02:00:10;;;;;;;6.97;4.80;;;;;;;;;;5027979;28;20916;-81
2023/09/18 02:02:37;;;;;;;10.02;4.90;;;;;;;;;;5029394;28;20423;-81
2023/09/18 02:05:24;;;;;;;6.65;5.43;;;;;;;;;;5019697;28;20430;-81
2023/09/18 02:07:52;;;;;;;6.40;5.43;;;;;;;;;;5029097;28;20932;-81
2023/09/18 02:10:20;;;;;;;6.43;5.10;;;;;;;;;;5028753;28;20809;-81
2023/09/18 02:12:47;;;;;;;7.67;5.87;;;;;;;;;;5029047;28;20521;-80
2023/09/18 02:15:16;;;;;;;9.47;6.10;;;;;;;;;;5025311;28;20436;-80
2023/09/18 02:17:49;;;;;;;9.05;6.53;;;;;;;;;;5040129;28;20469;-81
2023/09/18 02:20:18;;;;;;;9.88;5.55;;;;;;;;;;5038385;28;20545;-81
2023/09/18 02:22:46;;;;;;;9.10;6.10;;;;;;;;;;5043178;28;20431;-82
2023/09/18 02:25:16;;;;;;;10.43;7.03;;;;;;;;;;5027167;28;20897;-81
2023/09/18 02:27:46;;;;;;;10.30;6.63;;;;;;;;;;5029701;28;20443;-82
2023/09/18 02:30:19;;;;;;;13.20;6.57;;;;;;;;;;5028277;28;20440;-81
2023/09/18 02:32:46;;;;;;;6.63;5.88;;;;;;;;;;5041275;28;20522;-81
2023/09/18 02:35:13;;;;;;;6.95;5.80;;;;;;;;;;5025423;28;20439;-82
2023/09/18 02:37:40;;;;;;;6.45;5.68;;;;;;;;;;5032685;28;20800;-82
2023/09/18 02:40:08;;;;;;;11.65;6.75;;;;;;;;;;5031666;28;20426;-82
2023/09/18 02:42:35;;;;;;;9.85;6.53;;;;;;;;;;5032836;28;20430;-81
2023/09/18 02:45:02;;;;;;;8.10;6.10;;;;;;;;;;5027682;28;20813;-82
2023/09/18 02:47:29;;;;;;;10.93;6.20;;;;;;;;;;5045411;28;20538;-81
2023/09/18 02:49:56;;;;;;;9.02;5.90;;;;;;;;;;5029558;28;20430;-81
2023/09/18 02:52:26;;;;;;;9.67;5.77;;;;;;;;;;5026161;28;20521;-81
2023/09/18 02:54:53;;;;;;;8.00;5.93;;;;;;;;;;5030296;28;20931;-84
2023/09/18 02:57:22;;;;;;;6.00;5.20;;;;;;;;;;5032789;28;20438;-83
2023/09/18 02:59:49;;;;;;;6.07;5.47;;;;;;;;;;5025696;28;20434;-81
2023/09/18 03:02:16;;;;;;;7.53;5.75;;;;;;;;;;5031217;28;20510;-81
2023/09/18 03:04:43;;;;;;;8.70;5.90;;;;;;;;;;5047685;28;20457;-81
2023/09/18 03:07:16;;;;;;;8.45;5.47;;;;;;;;;;5028206;28;20465;-81
2023/09/18 03:09:43;;;;;;;6.38;5.18;;;;;;;;;;5046654;28;20440;-82
2023/09/18 03:12:10;;;;;;;8.55;6.05;;;;;;;;;;5031897;28;20489;-81
2023/09/18 03:14:37;;;;;;;9.15;5.63;;;;;;;;;;5047132;28;20426;-81
2023/09/18 03:17:05;;;;;;;10.77;5.90;;;;;;;;;;5044882;28;20469;-81
2023/09/18 03:19:32;;;;;;;10.13;5.40;;;;;;;;;;5047096;28;20431;-81
2023/09/18 03:22:01;;;;;;;10.35;5.63;;;;;;;;;;5045088;28;20434;-81
2023/09/18 03:24:28;;;;;;;8.70;5.33;;;;;;;;;;5031066;28;20470;-82
2023/09/18 03:26:59;;;;;;;8.27;5.45;;;;;;;;;;5032209;28;20462;-81
2023/09/18 03:29:26;;;;;;;5.57;5.07;;;;;;;;;;5047661;28;20505;-82
2023/09/18 03:31:55;;;;;;;6.55;5.55;;;;;;;;;;5045856;28;20804;-83
2023/09/18 03:34:26;;;;;;;6.97;5.60;;;;;;;;;;5028085;28;20427;-83
2023/09/18 03:36:54;;;;;;;6.13;4.88;;;;;;;;;;5025935;28;20435;-83
2023/09/18 03:39:21;;;;;;;11.07;6.00;;;;;;;;;;5023037;28;20437;-82
2023/09/18 03:41:51;;;;;;;8.43;5.35;;;;;;;;;;5023322;28;21035;-82
2023/09/18 03:44:18;;;;;;;7.95;5.30;;;;;;;;;;5044909;28;20521;-81
2023/09/18 03:46:45;;;;;;;6.90;5.18;;;;;;;;;;5040902;28;21252;-82
2023/09/18 03:49:15;;;;;;;10.43;5.53;;;;;;;;;;5046619;28;20511;-77
2023/09/18 03:51:45;;;;;;;7.00;5.13;;;;;;;;;;5046142;28;20916;-76
2023/09/18 03:54:12;;;;;;;8.27;5.10;;;;;;;;;;5028943;28;20543;-76
2023/09/18 03:56:40;;;;;;;7.30;4.80;;;;;;;;;;5029902;28;20481;-76
2023/09/18 03:59:07;;;;;;;12.97;5.97;;;;;;;;;;5029051;28;20523;-76
2023/09/18 04:01:35;;;;;;;8.83;5.80;;;;;;;;;;5045403;28;20966;-76
2023/09/18 04:04:02;;;;;;;10.50;5.70;;;;;;;;;;5035546;28;20430;-76
2023/09/18 04:06:41;;;;;;;8.55;5.43;;;;;;;;;;5032231;28;20468;-76
2023/09/18 04:09:11;;;;;;;7.60;5.68;;;;;;;;;;5025401;28;20434;-76
2023/09/18 04:11:38;;;;;;;8.35;5.75;;;;;;;;;;5038720;28;20448;-77
2023/09/18 04:14:05;;;;;;;9.57;5.38;;;;;;;;;;5020974;28;20426;-77
2023/09/18 04:16:37;;;;;;;8.52;5.68;;;;;;;;;;5023192;28;20443;-76
2023/09/18 04:19:10;;;;;;;7.88;6.13;;;;;;;;;;5029659;28;20510;-76
2023/09/18 04:21:39;;;;;;;9.77;5.97;;;;;;;;;;5030739;28;20463;-76
2023/09/18 04:24:06;;;;;;;8.82;5.80;;;;;;;;;;5038632;28;20496;-77
2023/09/18 04:26:34;;;;;;;8.90;5.60;;;;;;;;;;5045520;28;20462;-77
2023/09/18 04:29:01;;;;;;;6.90;5.32;;;;;;;;;;5025927;28;20761;-76
2023/09/18 04:31:28;;;;;;;7.30;4.93;;;;;;;;;;5017340;28;20638;-77
2023/09/18 04:33:56;;;;;;;6.55;4.85;;;;;;;;;;5028606;28;20445;-77
2023/09/18 04:36:26;;;;;;;11.77;4.50;;;;;;;;;;5027082;28;20518;-76
2023/09/18 04:38:54;;;;;;;6.35;4.35;;;;;;;;;;5043836;28;20957;-76
2023/09/18 04:41:21;;;;;;;13.82;4.95;;;;;;;;;;5042805;28;20979;-76
2023/09/18 04:43:48;;;;;;;8.02;4.47;;;;;;;;;;5039485;28;20430;-77
2023/09/18 04:46:18;;;;;;;7.70;4.30;;;;;;;;;;5029261;28;20514;-76
2023/09/18 04:48:48;;;;;;;5.82;4.38;;;;;;;;;;5028679;28;20434;-76
2023/09/18 04:51:16;;;;;;;7.70;4.10;;;;;;;;;;5027063;28;20733;-76
2023/09/18 04:53:43;;;;;;;8.77;4.78;;;;;;;;;;5028308;28;20441;-76
2023/09/18 04:56:10;;;;;;;9.75;4.80;;;;;;;;;;5042206;28;20438;-75
2023/09/18 04:58:38;;;;;;;6.10;3.90;;;;;;;;;;5040745;28;20442;-76
2023/09/18 05:01:06;;;;;;;6.13;4.13;;;;;;;;;;5028501;28;20493;-76
2023/09/18 05:03:34;;;;;;;5.85;4.13;;;;;;;;;;5040360;28;20941;-76
2023/09/18 05:06:03;;;;;;;4.82;3.75;;;;;;;;;;5044643;28;20439;-77
2023/09/18 05:08:32;;;;;;;6.30;3.92;;;;;;;;;;5040564;28;20444;-76
2023/09/18 05:10:59;;;;;;;6.22;3.47;;;;;;;;;;5029952;28;20431;-76
2023/09/18 05:13:29;;;;;;;7.35;4.05;;;;;;;;;;5041969;28;20441;-76
2023/09/18 05:15:58;;;;;;;4.80;3.53;;;;;;;;;;5026313;28;20434;-77
2023/09/18 05:18:25;;;;;;;4.68;3.60;;;;;;;;;;5030065;28;20434;-77
2023/09/18 05:20:52;;;;;;;5.57;3.55;;;;;;;;;;5028178;28;20522;-77
2023/09/18 05:23:20;;;;;;;7.03;3.40;;;;;;;;;;5025936;28;20428;-77
2023/09/18 05:25:47;;;;;;;4.85;3.45;;;;;;;;;;5041936;28;20812;-77
2023/09/18 05:28:16;;;;;;;4.70;3.53;;;;;;;;;;5025625;28;20515;-76
2023/09/18 05:30:44;;;;;;;9.30;3.67;;;;;;;;;;5026695;28;20520;-76
2023/09/18 05:33:11;;;;;;;5.05;3.17;;;;;;;;;;5019425;28;20434;-76
2023/09/18 05:35:42;;;;;;;7.07;3.83;;;;;;;;;;5023804;28;20442;-76
2023/09/18 05:38:10;;;;;;;6.68;3.88;;;;;;;;;;5040120;28;20444;-76
2023/09/18 05:40:38;;;;;;;6.22;3.45;;;;;;;;;;5026431;28;20458;-77
2023/09/18 05:43:05;;;;;;;6.22;3.40;;;;;;;;;;5038886;28;20462;-76
2023/09/18 05:45:33;;;;;;;7.25;3.63;;;;;;;;;;5036424;28;20445;-77
2023/09/18 05:48:04;;;;;;;6.70;3.65;;;;;;;;;;5028390;28;20805;-78
2023/09/18 05:50:32;;;;;;;7.55;3.30;;;;;;;;;;5042276;28;20443;-77
2023/09/18 05:53:00;;;;;;;7.05;3.20;;;;;;;;;;5028869;28;20936;-77
2023/09/18 05:55:27;;;;;;;10.63;3.17;;;;;;;;;;5021454;28;20438;-77
2023/09/18 05:57:55;;;;;;;6.95;3.42;;;;;;;;;;5015200;28;20428;-77
2023/09/18 06:00:22;;;;;;;6.85;3.13;;;;;;;;;;5023601;28;20440;-77
2023/09/18 06:02:53;;;;;;;8.57;3.22;;;;;;;;;;5021454;28;20439;-77
2023/09/18 06:05:24;;;;;;;7.72;3.10;;;;;;;;;;5028354;28;20894;-77
2023/09/18 06:07:53;;;;;;;11.70;3.53;;;;;;;;;;5037768;28;20530;-78
2023/09/18 06:10:21;;;;;;;7.45;3.50;;;;;;;;;;5034568;28;20439;-76
2023/09/18 06:12:48;;;;;;;9.18;3.40;;;;;;;;;;5042518;28;20489;-77
2023/09/18 06:15:15;;;;;;;8.73;3.05;;;;;;;;;;5028999;28;20936;-76
2023/09/18 06:17:43;;;;;;;10.32;3.22;;;;;;;;;;5040950;28;20500;-77
2023/09/18 06:20:21;;;;;;;11.57;3.42;;;;;;;;;;5023570;28;20431;-76
2023/09/18 06:22:49;;;;;;;11.77;3.28;;;;;;;;;;5043005;28;20478;-76
2023/09/18 06:25:16;;;;;;;11.20;3.20;;;;;;;;;;5041948;28;20445;-76
2023/09/18 06:27:43;;;;;;;9.20;2.83;;;;;;;;;;5028629;28;20435;-77
2023/09/18 06:30:10;;;;;;;14.43;3.10;;;;;;;;;;5020359;28;20927;-77
2023/09/18 06:32:42;;;;;;;10.52;3.08;;;;;;;;;;5026941;28;20442;-77
2023/09/18 06:35:09;;;;;;;9.43;2.75;;;;;;;;;;5041810;28;20529;-77
2023/09/18 06:37:36;;;;;;;7.63;3.15;;;;;;;;;;5020977;28;20442;-76
2023/09/18 06:40:05;;;;;;;9.18;3.05;;;;;;;;;;5034255;28;20431;-77
2023/09/18 06:42:32;;;;;;;9.13;2.72;;;;;;;;;;5038663;28;20492;-77
2023/09/18 06:45:02;;;;;;;13.15;3.22;;;;;;;;;;5026666;28;20431;-77
2023/09/18 06:47:29;;;;;;;8.90;2.80;;;;;;;;;;5027891;28;20485;-77
2023/09/18 06:49:57;;;;;;;7.43;2.70;;;;;;;;;;5027531;28;21177;-77
2023/09/18 06:52:25;;;;;;;8.80;2.85;;;;;;;;;;5040295;28;20436;-77
2023/09/18 06:54:52;;;;;;;9.03;3.03;;;;;;;;;;5038412;28;20430;-77
2023/09/18 06:57:21;;;;;;;8.63;3.15;;;;;;;;;;5024793;28;20938;-77
2023/09/18 06:59:48;;;;;;;6.43;2.97;;;;;;;;;;5014313;28;20483;-77
2023/09/18 07:02:15;;;;;;;9.57;2.75;;;;;;;;;;5042776;28;20493;-77
2023/09/18 07:04:45;;;;;;;7.53;3.20;;;;;;;;;;5038605;28;20518;-78
2023/09/18 07:07:14;;;;;;;10.35;3.10;;;;;;;;;;5026392;28;20983;-77
2023/09/18 07:09:44;;;;;;;11.50;2.87;;;;;;;;;;5040749;28;20437;-77
2023/09/18 07:12:14;;;;;;;10.20;2.90;;;;;;;;;;5041374;28;20431;-77
2023/09/18 07:14:43;;;;;;;8.82;3.17;;;;;;;;;;5028025;28;20442;-78
2023/09/18 07:17:11;;;;;;;10.65;3.10;;;;;;;;;;5029367;28;20430;-77
2023/09/18 07:19:41;;;;;;;8.63;2.70;;;;;;;;;;5031590;28;20437;-77
2023/09/18 07:22:11;;;;;;;9.77;2.87;;;;;;;;;;5022833;28;20433;-77
2023/09/18 07:24:42;;;;;;;9.73;2.90;;;;;;;;;;5031026;28;20469;-77
2023/09/18 07:27:12;;;;;;;7.43;2.75;;;;;;;;;;5046399;28;20449;-77
2023/09/18 07:29:40;;;;;;;8.32;2.63;;;;;;;;;;5044431;28;20473;-77
2023/09/18 07:32:07;;;;;;;8.40;2.92;;;;;;;;;;5045966;28;20427;-77
2023/09/18 07:34:37;;;;;;;9.57;2.80;;;;;;;;;;5041245;28;20442;-77
2023/09/18 07:37:04;;;;;;;8.90;2.60;;;;;;;;;;5030494;28;20477;-77
2023/09/18 07:39:32;;;;;;;7.95;2.90;;;;;;;;;;5025489;28;20970;-77
2023/09/18 07:42:00;;;;;;;9.33;3.20;;;;;;;;;;5046176;28;20465;-77
2023/09/18 07:44:27;;;;;;;9.82;3.08;;;;;;;;;;5022718;28;20434;-77
2023/09/18 07:47:01;;;;;;;8.60;2.83;;;;;;;;;;5029959;28;20512;-77
2023/09/18 07:49:28;;;;;;;10.43;2.70;;;;;;;;;;5022184;28;20422;-77
2023/09/18 07:51:55;;;;;;;8.05;2.20;;;;;;;;;;5024574;28;20825;-76
2023/09/18 07:54:23;;;;;;;8.55;2.95;;;;;;;;;;5028387;28;20805;-77
2023/09/18 07:56:50;;;;;;;8.25;2.45;;;;;;;;;;5045467;28;21120;-77
2023/09/18 07:59:17;;;;;;;9.15;2.70;;;;;;;;;;5038764;28;21017;-77
2023/09/18 08:01:44;;;;;;;8.50;2.88;;;;;;;;;;5026642;28;20493;-77
2023/09/18 08:04:11;;;;;;;8.35;2.60;;;;;;;;;;5029875;28;20434;-77
2023/09/18 08:06:42;;;;;;;6.23;2.63;;;;;;;;;;5041007;28;20967;-77
2023/09/18 08:09:15;;;;;;;9.43;2.83;;;;;;;;;;5026272;28;20431;-76
2023/09/18 08:11:42;;;;;;;7.75;2.63;;;;;;;;;;5026745;28;20503;-77
2023/09/18 08:14:17;;;;;;;7.97;2.47;;;;;;;;;;5028888;28;21172;-77
2023/09/18 08:16:57;;;;;;;7.83;2.80;;;;;;;;;;5030058;28;20430;-77
2023/09/18 08:19:26;;;;;;;6.90;2.42;;;;;;;;;;5026827;28;20862;-77
2023/09/18 08:21:54;;;;;;;6.55;2.72;;;;;;;;;;5024864;28;20427;-77
2023/09/18 08:24:21;;;;;;;5.53;2.27;;;;;;;;;;5023272;28;20438;-76
2023/09/18 08:26:51;;;;;;;10.88;2.50;;;;;;;;;;5038715;28;20491;-77
2023/09/18 08:29:19;;;;;;;7.38;2.40;;;;;;;;;;5023873;28;20441;-77
2023/09/18 08:31:47;;;;;;;5.68;2.50;;;;;;;;;;5019477;28;20496;-76
2023/09/18 08:34:14;;;;;;;10.93;2.30;;;;;;;;;;5042681;28;21156;-77
2023/09/18 08:36:41;;;;;;;7.25;2.03;;;;;;;;;;5040061;28;20518;-77
2023/09/18 08:39:11;;;;;;;13.70;2.60;;;;;;;;;;5020797;28;20519;-77
2023/09/18 08:41:43;;;;;;;8.50;2.30;;;;;;;;;;5028737;28;20434;-77
2023/09/18 08:44:15;;;;;;;14.00;2.33;;;;;;;;;;5021592;28;20434;-77
2023/09/18 08:46:43;;;;;;;7.82;2.00;;;;;;;;;;5044832;28;21148;-77
2023/09/18 08:49:11;;;;;;;7.60;2.42;;;;;;;;;;5022042;28;20514;-76
2023/09/18 08:51:38;;;;;;;8.10;2.40;;;;;;;;;;5024054;28;20521;-77
2023/09/18 08:54:06;;;;;;;9.73;2.20;;;;;;;;;;5023605;28;20433;-76
2023/09/18 08:56:36;;;;;;;6.73;2.07;;;;;;;;;;5024547;28;20431;-77
2023/09/18 08:59:03;;;;;;;6.88;2.03;;;;;;;;;;5024982;28;20438;-77
2023/09/18 09:01:30;;;;;;;8.60;2.22;;;;;;;;;;5024517;28;20888;-76
2023/09/18 09:03:57;;;;;;;7.85;1.92;;;;;;;;;;5028398;28;20445;-77
2023/09/18 09:06:27;;;;;;;7.85;2.08;;;;;;;;;;5024765;28;20521;-76
2023/09/18 09:08:54;;;;;;;5.53;1.60;;;;;;;;;;5044107;28;20865;-76
2023/09/18 09:11:22;;;;;;;10.35;1.75;;;;;;;;;;5034993;28;20446;-76
2023/09/18 09:14:12;;;;;;;5.47;1.40;;;;;;;;;;5032321;28;20433;-76
2023/09/18 09:16:40;;;;;;;4.10;1.40;;;;;;;;;;5032380;28;20426;-76
2023/09/18 09:19:07;;;;;;;5.38;1.70;;;;;;;;;;5026134;28;20424;-76
2023/09/18 09:21:43;;;;;;;5.78;1.30;;;;;;;;;;5024668;28;20474;-77
2023/09/18 09:24:13;;;;;;;3.53;1.48;;;;;;;;;;5026734;28;20423;-76
2023/09/18 09:26:42;;;;;;;3.80;1.40;;;;;;;;;;5025112;28;20882;-77
2023/09/18 09:29:18;;;;;;;6.40;1.77;;;;;;;;;;5033844;28;20510;-76
2023/09/18 09:31:50;;;;;;;3.57;1.10;;;;;;;;;;5032607;28;20487;-76
2023/09/18 09:34:28;;;;;;;2.33;1.30;;;;;;;;;;5030054;28;20526;-76
2023/09/18 09:36:56;;;;;;;4.22;1.52;;;;;;;;;;5027816;28;20918;-76
2023/09/18 09:39:25;;;;;;;4.15;1.10;;;;;;;;;;5033560;28;20438;-76
2023/09/18 09:41:53;;;;;;;5.10;1.30;;;;;;;;;;5032930;28;20423;-76
2023/09/18 09:44:23;;;;;;;5.77;1.37;;;;;;;;;;5033440;28;20439;-76
2023/09/18 09:46:51;;;;;;;3.63;1.13;;;;;;;;;;5024648;28;20492;-76
2023/09/18 09:49:24;;;;;;;4.78;1.45;;;;;;;;;;5041787;28;20897;-76
2023/09/18 09:51:51;;;;;;;6.03;1.60;;;;;;;;;;5014890;28;20432;-76
2023/09/18 09:54:34;;;;;;;4.67;1.20;;;;;;;;;;5027246;28;20513;-76
2023/09/18 09:57:03;;;;;;;4.57;1.67;;;;;;;;;;5029317;28;20951;-76
2023/09/18 09:59:33;;;;;;;3.00;1.20;;;;;;;;;;5023912;28;20518;-76
2023/09/18 10:02:00;;;;;;;3.70;1.40;;;;;;;;;;5038777;28;20474;-76
2023/09/18 10:04:32;;;;;;;2.30;0.90;;;;;;;;;;5022308;28;20437;-76
2023/09/18 10:07:09;;;;;;;6.93;1.20;;;;;;;;;;5022550;28;20445;-76
2023/09/18 10:09:41;;;;;;;3.00;1.13;;;;;;;;;;5041967;28;20488;-76
2023/09/18 10:12:13;;;;;;;3.25;1.02;;;;;;;;;;5043120;28;20435;-76
2023/09/18 10:14:42;;;;;;;5.60;0.90;;;;;;;;;;5028662;28;20427;-76
2023/09/18 10:17:29;;;;;;;1.45;0.90;;;;;;;;;;5034338;28;20774;-76
2023/09/18 10:20:10;;;;;;;2.15;0.80;;;;;;;;;;5024073;28;20437;-76
2023/09/18 10:22:42;;;;;;;4.28;1.10;;;;;;;;;;5019168;28;20441;-76
2023/09/18 10:25:22;;;;;;;3.60;0.90;;;;;;;;;;5040250;28;20430;-76
2023/09/18 10:28:01;;;;;;;2.38;1.17;;;;;;;;;;5024193;28;20513;-76
2023/09/18 10:30:29;;;;;;;3.08;0.98;;;;;;;;;;5018952;28;20458;-76
2023/09/18 10:32:59;;;;;;;1.03;0.97;;;;;;;;;;5024495;28;20423;-76
2023/09/18 10:35:26;;;;;;;1.63;0.90;;;;;;;;;;5021273;28;20431;-76
2023/09/18 10:37:54;;;;;;;2.60;1.00;;;;;;;;;;5042117;28;20462;-76
2023/09/18 10:40:23;;;;;;;3.60;1.10;;;;;;;;;;5027595;28;20458;-77
2023/09/18 10:42:51;;;;;;;3.22;0.80;;;;;;;;;;5026133;28;20537;-77
2023/09/18 10:45:18;;;;;;;2.85;0.82;;;;;;;;;;5027016;28;20434;-77
2023/09/18 10:47:46;;;;;;;1.70;0.75;;;;;;;;;;5028417;28;20510;-77
2023/09/18 10:50:22;;;;;;;2.05;1.10;;;;;;;;;;5034784;28;20439;-76
2023/09/18 10:52:49;;;;;;;3.30;0.80;;;;;;;;;;5040011;28;20935;-77
2023/09/18 10:55:17;;;;;;;2.72;0.88;;;;;;;;;;5046565;28;20442;-76
2023/09/18 10:58:00;;;;;;;2.13;0.90;;;;;;;;;;5030807;28;20439;-77
2023/09/18 11:00:29;;;;;;;1.73;1.00;;;;;;;;;;5022918;28;20441;-77
2023/09/18 11:03:18;;;;;;;2.42;0.80;;;;;;;;;;5045028;28;20430;-76
2023/09/18 11:05:46;;;;;;;5.70;1.27;;;;;;;;;;5027599;28;20513;-77
2023/09/18 11:08:35;;;;;;;3.25;0.95;;;;;;;;;;5024533;28;20489;-77
2023/09/18 11:11:14;;;;;;;2.95;0.80;;;;;;;;;;5028173;28;20435;-76
2023/09/18 11:13:42;;;;;;;3.03;0.77;;;;;;;;;;5044190;28;20510;-76
2023/09/18 11:16:17;;;;;;;1.95;0.80;;;;;;;;;;5029398;28;20512;-76
2023/09/18 11:18:52;;;;;;;2.90;0.90;;;;;;;;;;5031502;28;20431;-77
2023/09/18 11:21:24;;;;;;;2.50;0.70;;;;;;;;;;5027232;28;20792;-77
2023/09/18 11:24:04;;;;;;;3.17;0.95;;;;;;;;;;5018880;28;20428;-77
2023/09/18 11:26:39;;;;;;;3.10;0.90;;;;;;;;;;5024896;28;20920;-76
2023/09/18 11:29:09;;;;;;;5.43;1.02;;;;;;;;;;5023592;28;20484;-76
2023/09/18 11:31:45;;;;;;;2.40;1.10;;;;;;;;;;5025604;28;20434;-77
2023/09/18 11:34:28;;;;;;;3.03;1.50;;;;;;;;;;5028513;28;20423;-77
2023/09/18 11:36:56;;;;;;;3.50;1.20;;;;;;;;;;5030817;28;21028;-77
2023/09/18 11:39:37;;;;;;;3.75;1.10;;;;;;;;;;5031821;28;20432;-77
2023/09/18 11:42:16;;;;;;;3.92;1.02;;;;;;;;;;5030645;28;20897;-76
2023/09/18 11:44:46;;;;;;;3.50;0.90;;;;;;;;;;5038519;28;20465;-77
2023/09/18 11:47:19;;;;;;;2.00;1.00;;;;;;;;;;5045574;28;20486;-77
2023/09/18 11:49:55;;;;;;;1.75;0.90;;;;;;;;;;5028267;28;20618;-76
2023/09/18 11:52:24;;;;;;;3.17;1.20;;;;;;;;;;5028370;28;20438;-77
2023/09/18 11:54:51;;;;;;;3.78;1.00;;;;;;;;;;5024383;28;20473;-77
2023/09/18 11:57:22;;;;;;;3.35;1.00;;;;;;;;;;5044625;28;20435;-76
2023/09/18 11:59:53;;;;;;;3.85;0.80;;;;;;;;;;5045581;28;20522;-77
2023/09/18 12:02:27;;;;;;;3.63;0.90;;;;;;;;;;5045277;28;20442;-76
2023/09/18 12:04:55;;;;;;;1.80;0.80;;;;;;;;;;5021401;28;21004;-76
2023/09/18 12:07:24;;;;;;;4.00;1.10;;;;;;;;;;5027822;28;20443;-76
2023/09/18 12:09:53;;;;;;;2.42;1.00;;;;;;;;;;5028427;28;20451;-76
2023/09/18 12:12:21;;;;;;;2.75;0.80;;;;;;;;;;5030206;28;20437;-76
2023/09/18 12:14:48;;;;;;;2.13;0.80;;;;;;;;;;5043451;28;20443;-76
2023/09/18 12:17:16;;;;;;;5.53;1.00;;;;;;;;;;5028876;28;20446;-76
2023/09/18 12:19:56;;;;;;;5.78;0.80;;;;;;;;;;5020645;28;21065;-77
2023/09/18 12:22:27;;;;;;;1.13;1.00;;;;;;;;;;5043988;28;20435;-76
2023/09/18 12:25:18;;;;;;;2.50;1.00;;;;;;;;;;5025043;28;20500;-77
2023/09/18 12:27:51;;;;;;;2.60;0.60;;;;;;;;;;5015016;28;20437;-77
2023/09/18 12:30:20;;;;;;;1.73;0.90;;;;;;;;;;5019512;28;20440;-77
2023/09/18 12:32:48;;;;;;;1.42;0.98;;;;;;;;;;5024373;28;20443;-77
2023/09/18 12:35:19;;;;;;;2.50;0.90;;;;;;;;;;5027168;28;20435;-77
2023/09/18 12:37:47;;;;;;;2.67;1.30;;;;;;;;;;5035982;28;20517;-77
2023/09/18 12:40:32;;;;;;;2.60;0.90;;;;;;;;;;5027874;28;20447;-78
2023/09/18 12:43:01;;;;;;;2.47;0.90;;;;;;;;;;5025165;28;20440;-77
2023/09/18 12:45:29;;;;;;;2.47;0.90;;;;;;;;;;5029129;28;20458;-78
2023/09/18 12:47:57;;;;;;;2.42;0.90;;;;;;;;;;5043113;28;20487;-77
2023/09/18 12:50:25;;;;;;;4.20;1.00;;;;;;;;;;5023848;28;20442;-77
2023/09/18 12:52:53;;;;;;;2.88;0.90;;;;;;;;;;5037954;28;20428;-77
2023/09/18 12:55:24;;;;;;;2.78;0.95;;;;;;;;;;5025229;28;20780;-76
2023/09/18 12:57:52;;;;;;;1.38;0.90;;;;;;;;;;5022648;28;20561;-77
2023/09/18 13:00:22;;;;;;;2.00;0.87;;;;;;;;;;5028410;28;20999;-76
2023/09/18 13:02:55;;;;;;;2.55;1.10;;;;;;;;;;5023112;28;20435;-76
2023/09/18 13:05:26;;;;;;;1.80;0.80;;;;;;;;;;5021278;28;20491;-77
2023/09/18 13:07:55;;;;;;;3.30;0.90;;;;;;;;;;5026485;28;20488;-77
2023/09/18 13:10:22;;;;;;;1.60;0.90;;;;;;;;;;5027609;28;20443;-77
2023/09/18 13:12:55;;;;;;;1.33;0.90;;;;;;;;;;5043605;28;20431;-77
2023/09/18 13:15:30;;;;;;;1.88;0.80;;;;;;;;;;5028490;28;20441;-76
2023/09/18 13:18:00;;;;;;;2.53;0.90;;;;;;;;;;5037647;28;20527;-77
2023/09/18 13:20:28;;;;;;;1.85;1.00;;;;;;;;;;5031981;28;20485;-77
2023/09/18 13:22:58;;;;;;;2.33;1.13;;;;;;;;;;5044339;28;20426;-77
2023/09/18 13:25:26;;;;;;;0.93;0.90;;;;;;;;;;5027679;28;20448;-76
2023/09/18 13:27:54;;;;;;;1.50;0.90;;;;;;;;;;5039738;28;20518;-77
2023/09/18 13:30:22;;;;;;;2.05;0.98;;;;;;;;;;5026637;28;20454;-76
2023/09/18 13:32:50;;;;;;;1.65;1.02;;;;;;;;;;5029062;28;21033;-76
2023/09/18 13:35:18;;;;;;;1.98;0.90;;;;;;;;;;5038043;28;20469;-77
2023/09/18 13:37:45;;;;;;;1.17;0.83;;;;;;;;;;5024895;28;20557;-76
2023/09/18 13:40:13;;;;;;;2.73;1.10;;;;;;;;;;5023166;28;20789;-77
2023/09/18 13:42:43;;;;;;;1.30;0.80;;;;;;;;;;5025867;28;20426;-78
2023/09/18 13:45:16;;;;;;;2.25;1.00;;;;;;;;;;5028674;28;20454;-77
2023/09/18 13:47:43;;;;;;;1.65;0.82;;;;;;;;;;5026845;28;20916;-77
2023/09/18 13:50:13;;;;;;;1.98;1.00;;;;;;;;;;5026943;28;20945;-77
2023/09/18 13:52:40;;;;;;;2.70;1.10;;;;;;;;;;5027216;28;20552;-76
2023/09/18 13:55:10;;;;;;;1.88;1.15;;;;;;;;;;5039216;28;20471;-77
2023/09/18 13:57:39;;;;;;;2.58;1.00;;;;;;;;;;5025579;28;20885;-77
2023/09/18 14:00:14;;;;;;;3.30;0.90;;;;;;;;;;5024126;28;20436;-77
2023/09/18 14:02:44;;;;;;;3.88;1.30;;;;;;;;;;5024712;28;20510;-78
2023/09/18 14:05:11;;;;;;;1.77;1.00;;;;;;;;;;5027559;28;20516;-78
2023/09/18 14:07:44;;;;;;;1.20;1.10;;;;;;;;;;5027429;28;20538;-77
2023/09/18 14:10:12;;;;;;;3.33;1.35;;;;;;;;;;5026631;28;20446;-78
2023/09/18 14:12:39;;;;;;;2.25;1.20;;;;;;;;;;5042670;28;20463;-77
2023/09/18 14:15:07;;;;;;;5.05;1.50;;;;;;;;;;5043604;28;20533;-76
2023/09/18 14:17:34;;;;;;;4.55;1.27;;;;;;;;;;5024966;28;20427;-78
2023/09/18 14:20:06;;;;;;;4.03;1.30;;;;;;;;;;5039845;28;20446;-77
2023/09/18 14:22:34;;;;;;;3.03;1.15;;;;;;;;;;5025444;28;20457;-76
2023/09/18 14:25:05;;;;;;;1.63;1.17;;;;;;;;;;5027814;28;20438;-76
2023/09/18 14:27:34;;;;;;;5.63;1.38;;;;;;;;;;5031204;28;20562;-77
2023/09/18 14:30:06;;;;;;;3.33;1.10;;;;;;;;;;5034624;28;20445;-77
2023/09/18 14:32:35;;;;;;;2.85;1.48;;;;;;;;;;5034422;28;20512;-77
2023/09/18 14:35:05;;;;;;;3.78;1.25;;;;;;;;;;5028046;28;20430;-77
2023/09/18 14:37:32;;;;;;;3.50;1.38;;;;;;;;;;5027008;28;20482;-77
2023/09/18 14:39:59;;;;;;;3.38;1.35;;;;;;;;;;5028937;28;20435;-77
2023/09/18 14:42:27;;;;;;;2.72;1.10;;;;;;;;;;5029670;28;20437;-78
2023/09/18 14:44:54;;;;;;;2.60;1.20;;;;;;;;;;5037425;28;20435;-77
2023/09/18 14:47:21;;;;;;;5.20;1.50;;;;;;;;;;5027534;28;20434;-77
2023/09/18 14:49:51;;;;;;;2.75;1.42;;;;;;;;;;5028827;28;20447;-78
2023/09/18 14:52:21;;;;;;;2.85;1.33;;;;;;;;;;5050125;28;20445;-77
2023/09/18 14:54:49;;;;;;;3.10;1.33;;;;;;;;;;5028649;28;20469;-76